sensor_id;sensor_type;location;lat;lon;timestamp;temperature;humidity
15013;DHT22;7603;49.432;11.418;2023-04-06T00:01:27;-1.80;99.90
15013;DHT22;7603;49.432;11.418;2023-04-06T00:03:53;-1.80;99.90
15013;DHT22;7603;49.432;11.418;2023-04-06T00:06:18;-1.80;99.90
15013;DHT22;7603;49.432;11.418;2023-04-06T00:08:44;-1.90;99.90
15013;DHT22;7603;49.432;11.418;2023-04-06T00:11:10;-1.90;99.90
15013;DHT22;7603;49.432;11.418;2023-04-06T00:13:35;-1.90;99.90
15013;DHT22;7603;49.432;11.418;2023-04-06T00:16:01;-1.90;99.90
15013;DHT22;7603;49.432;11.418;2023-04-06T00:18:27;-1.90;99.90
15013;DHT22;7603;49.432;11.418;2023-04-06T00:20:52;-1.90;99.90
15013;DHT22;7603;49.432;11.418;2023-04-06T00:23:18;-1.90;99.90
15013;DHT22;7603;49.432;11.418;2023-04-06T00:25:43;-1.90;99.90
15013;DHT22;7603;49.432;11.418;2023-04-06T00:28:09;-1.80;99.90
15013;DHT22;7603;49.432;11.418;2023-04-06T00:30:35;-1.80;99.90
15013;DHT22;7603;49.432;11.418;2023-04-06T00:33:00;-1.70;99.90
15013;DHT22;7603;49.432;11.418;2023-04-06T00:35:26;-1.70;99.90
15013;DHT22;7603;49.432;11.418;2023-04-06T00:37:52;-1.70;99.90
15013;DHT22;7603;49.432;11.418;2023-04-06T00:40:18;-1.70;99.90
15013;DHT22;7603;49.432;11.418;2023-04-06T00:42:43;-1.70;99.90
15013;DHT22;7603;49.432;11.418;2023-04-06T00:45:09;-1.70;99.90
15013;DHT22;7603;49.432;11.418;2023-04-06T00:47:35;-1.70;99.90
15013;DHT22;7603;49.432;11.418;2023-04-06T00:50:01;-1.70;99.90
15013;DHT22;7603;49.432;11.418;2023-04-06T00:52:27;-1.70;99.90
15013;DHT22;7603;49.432;11.418;2023-04-06T00:54:52;-1.70;99.90
15013;DHT22;7603;49.432;11.418;2023-04-06T00:57:19;-1.70;99.90
15013;DHT22;7603;49.432;11.418;2023-04-06T00:59:45;-1.70;99.90
15013;DHT22;7603;49.432;11.418;2023-04-06T01:02:11;-1.70;99.90
15013;DHT22;7603;49.432;11.418;2023-04-06T01:04:37;-1.70;99.90
15013;DHT22;7603;49.432;11.418;2023-04-06T01:07:02;-1.70;99.90
15013;DHT22;7603;49.432;11.418;2023-04-06T01:09:29;-1.70;99.90
15013;DHT22;7603;49.432;11.418;2023-04-06T01:11:58;-1.70;99.90
15013;DHT22;7603;49.432;11.418;2023-04-06T01:14:24;-1.70;99.90
15013;DHT22;7603;49.432;11.418;2023-04-06T01:16:51;-1.70;99.90
15013;DHT22;7603;49.432;11.418;2023-04-06T01:19:17;-1.70;99.90
15013;DHT22;7603;49.432;11.418;2023-04-06T01:21:42;-1.70;99.90
15013;DHT22;7603;49.432;11.418;2023-04-06T01:24:08;-1.60;99.90
15013;DHT22;7603;49.432;11.418;2023-04-06T01:26:34;-1.80;99.90
15013;DHT22;7603;49.432;11.418;2023-04-06T01:29:01;-1.80;99.90
15013;DHT22;7603;49.432;11.418;2023-04-06T01:31:27;-1.80;99.90
15013;DHT22;7603;49.432;11.418;2023-04-06T01:33:53;-1.90;99.90
15013;DHT22;7603;49.432;11.418;2023-04-06T01:36:19;-1.90;99.90
15013;DHT22;7603;49.432;11.418;2023-04-06T01:38:45;-1.90;99.90
15013;DHT22;7603;49.432;11.418;2023-04-06T01:41:11;-1.90;99.90
15013;DHT22;7603;49.432;11.418;2023-04-06T01:43:37;-1.80;99.90
15013;DHT22;7603;49.432;11.418;2023-04-06T01:46:03;-1.80;99.90
15013;DHT22;7603;49.432;11.418;2023-04-06T01:48:29;-1.80;99.90
15013;DHT22;7603;49.432;11.418;2023-04-06T01:50:55;-1.80;99.90
15013;DHT22;7603;49.432;11.418;2023-04-06T01:53:21;-1.90;99.90
15013;DHT22;7603;49.432;11.418;2023-04-06T01:55:46;-1.90;99.90
15013;DHT22;7603;49.432;11.418;2023-04-06T01:58:12;-1.90;99.90
15013;DHT22;7603;49.432;11.418;2023-04-06T02:00:39;-1.90;99.90
15013;DHT22;7603;49.432;11.418;2023-04-06T02:03:05;-1.90;99.90
15013;DHT22;7603;49.432;11.418;2023-04-06T02:05:32;-2.00;99.90
15013;DHT22;7603;49.432;11.418;2023-04-06T02:08:06;-2.00;99.90
15013;DHT22;7603;49.432;11.418;2023-04-06T02:10:32;-2.00;99.90
15013;DHT22;7603;49.432;11.418;2023-04-06T02:12:58;-2.00;99.90
15013;DHT22;7603;49.432;11.418;2023-04-06T02:15:24;-2.00;99.90
15013;DHT22;7603;49.432;11.418;2023-04-06T02:17:50;-2.00;99.90
15013;DHT22;7603;49.432;11.418;2023-04-06T02:20:16;-2.10;99.90
15013;DHT22;7603;49.432;11.418;2023-04-06T02:22:42;-2.20;99.90
15013;DHT22;7603;49.432;11.418;2023-04-06T02:25:08;-2.20;99.90
15013;DHT22;7603;49.432;11.418;2023-04-06T02:27:34;-2.30;99.90
15013;DHT22;7603;49.432;11.418;2023-04-06T02:29:59;-2.30;99.90
15013;DHT22;7603;49.432;11.418;2023-04-06T02:32:25;-2.40;99.90
15013;DHT22;7603;49.432;11.418;2023-04-06T02:34:51;-2.40;99.90
15013;DHT22;7603;49.432;11.418;2023-04-06T02:37:17;-2.50;99.90
15013;DHT22;7603;49.432;11.418;2023-04-06T02:39:42;-2.50;99.90
15013;DHT22;7603;49.432;11.418;2023-04-06T02:42:08;-2.60;99.90
15013;DHT22;7603;49.432;11.418;2023-04-06T02:44:34;-2.60;99.90
15013;DHT22;7603;49.432;11.418;2023-04-06T02:47:00;-2.70;99.90
15013;DHT22;7603;49.432;11.418;2023-04-06T02:49:25;-2.80;99.90
15013;DHT22;7603;49.432;11.418;2023-04-06T02:51:51;-2.80;99.90
15013;DHT22;7603;49.432;11.418;2023-04-06T02:54:17;-2.90;99.90
15013;DHT22;7603;49.432;11.418;2023-04-06T02:56:43;-2.90;99.90
15013;DHT22;7603;49.432;11.418;2023-04-06T02:59:08;-3.00;99.90
15013;DHT22;7603;49.432;11.418;2023-04-06T03:01:34;-3.00;99.90
15013;DHT22;7603;49.432;11.418;2023-04-06T03:04:00;-3.10;99.90
15013;DHT22;7603;49.432;11.418;2023-04-06T03:06:26;-3.10;99.90
15013;DHT22;7603;49.432;11.418;2023-04-06T03:08:51;-3.10;99.90
15013;DHT22;7603;49.432;11.418;2023-04-06T03:11:17;-3.10;99.90
15013;DHT22;7603;49.432;11.418;2023-04-06T03:13:42;-3.10;99.90
15013;DHT22;7603;49.432;11.418;2023-04-06T03:16:08;-3.20;99.90
15013;DHT22;7603;49.432;11.418;2023-04-06T03:18:34;-3.30;99.90
15013;DHT22;7603;49.432;11.418;2023-04-06T03:20:59;-3.20;99.90
15013;DHT22;7603;49.432;11.418;2023-04-06T03:23:26;-3.20;99.90
15013;DHT22;7603;49.432;11.418;2023-04-06T03:25:51;-3.30;99.90
15013;DHT22;7603;49.432;11.418;2023-04-06T03:28:17;-3.20;99.90
15013;DHT22;7603;49.432;11.418;2023-04-06T03:30:43;-3.30;99.90
15013;DHT22;7603;49.432;11.418;2023-04-06T03:33:08;-3.20;99.90
15013;DHT22;7603;49.432;11.418;2023-04-06T03:35:34;-3.20;99.90
15013;DHT22;7603;49.432;11.418;2023-04-06T03:37:59;-3.20;99.90
15013;DHT22;7603;49.432;11.418;2023-04-06T03:40:25;-3.30;99.90
15013;DHT22;7603;49.432;11.418;2023-04-06T03:42:51;-3.30;99.90
15013;DHT22;7603;49.432;11.418;2023-04-06T03:45:16;-3.30;99.90
15013;DHT22;7603;49.432;11.418;2023-04-06T03:47:42;-3.30;99.90
15013;DHT22;7603;49.432;11.418;2023-04-06T03:50:08;-3.30;99.90
15013;DHT22;7603;49.432;11.418;2023-04-06T03:52:34;-3.30;99.90
15013;DHT22;7603;49.432;11.418;2023-04-06T03:55:00;-3.40;99.90
15013;DHT22;7603;49.432;11.418;2023-04-06T03:57:26;-3.40;99.90
15013;DHT22;7603;49.432;11.418;2023-04-06T03:59:51;-3.40;99.90
15013;DHT22;7603;49.432;11.418;2023-04-06T04:02:17;-3.40;99.90
15013;DHT22;7603;49.432;11.418;2023-04-06T04:04:43;-3.40;99.90
15013;DHT22;7603;49.432;11.418;2023-04-06T04:07:09;-3.40;99.90
15013;DHT22;7603;49.432;11.418;2023-04-06T04:09:34;-3.50;99.90
15013;DHT22;7603;49.432;11.418;2023-04-06T04:12:00;-3.50;99.90
15013;DHT22;7603;49.432;11.418;2023-04-06T04:14:26;-3.50;99.90
15013;DHT22;7603;49.432;11.418;2023-04-06T04:16:52;-3.50;99.90
15013;DHT22;7603;49.432;11.418;2023-04-06T04:19:17;-3.50;99.90
15013;DHT22;7603;49.432;11.418;2023-04-06T04:21:44;-3.50;99.90
15013;DHT22;7603;49.432;11.418;2023-04-06T04:24:10;-3.50;99.90
15013;DHT22;7603;49.432;11.418;2023-04-06T04:26:37;-3.60;99.90
15013;DHT22;7603;49.432;11.418;2023-04-06T04:29:03;-3.70;99.90
15013;DHT22;7603;49.432;11.418;2023-04-06T04:31:29;-3.70;99.90
15013;DHT22;7603;49.432;11.418;2023-04-06T04:33:55;-3.70;99.90
15013;DHT22;7603;49.432;11.418;2023-04-06T04:36:21;-3.70;99.90
15013;DHT22;7603;49.432;11.418;2023-04-06T04:38:46;-3.80;99.90
15013;DHT22;7603;49.432;11.418;2023-04-06T04:41:12;-3.80;99.90
15013;DHT22;7603;49.432;11.418;2023-04-06T04:43:37;-3.80;99.90
15013;DHT22;7603;49.432;11.418;2023-04-06T04:46:04;-3.80;99.90
15013;DHT22;7603;49.432;11.418;2023-04-06T04:48:30;-3.80;99.90
15013;DHT22;7603;49.432;11.418;2023-04-06T04:50:55;-3.80;99.90
15013;DHT22;7603;49.432;11.418;2023-04-06T04:53:21;-3.90;99.90
15013;DHT22;7603;49.432;11.418;2023-04-06T04:55:47;-3.90;99.90
15013;DHT22;7603;49.432;11.418;2023-04-06T04:58:12;-3.90;99.90
15013;DHT22;7603;49.432;11.418;2023-04-06T05:00:42;-3.90;99.90
15013;DHT22;7603;49.432;11.418;2023-04-06T05:03:08;-3.80;99.90
15013;DHT22;7603;49.432;11.418;2023-04-06T05:05:34;-3.90;99.90
15013;DHT22;7603;49.432;11.418;2023-04-06T05:08:01;-3.80;99.90
15013;DHT22;7603;49.432;11.418;2023-04-06T05:10:26;-3.80;99.90
15013;DHT22;7603;49.432;11.418;2023-04-06T05:12:52;-3.80;99.90
15013;DHT22;7603;49.432;11.418;2023-04-06T05:15:18;-3.80;99.90
15013;DHT22;7603;49.432;11.418;2023-04-06T05:17:43;-3.70;99.90
15013;DHT22;7603;49.432;11.418;2023-04-06T05:20:09;-3.70;99.90
15013;DHT22;7603;49.432;11.418;2023-04-06T05:22:35;-3.60;99.90
15013;DHT22;7603;49.432;11.418;2023-04-06T05:25:02;-3.50;99.90
15013;DHT22;7603;49.432;11.418;2023-04-06T05:27:28;-3.50;99.90
15013;DHT22;7603;49.432;11.418;2023-04-06T05:29:53;-3.40;99.90
15013;DHT22;7603;49.432;11.418;2023-04-06T05:32:19;-3.40;99.90
15013;DHT22;7603;49.432;11.418;2023-04-06T05:34:48;-3.30;99.90
15013;DHT22;7603;49.432;11.418;2023-04-06T05:37:14;-3.30;99.90
15013;DHT22;7603;49.432;11.418;2023-04-06T05:39:39;-3.20;99.90
15013;DHT22;7603;49.432;11.418;2023-04-06T05:42:05;-3.20;99.90
15013;DHT22;7603;49.432;11.418;2023-04-06T05:44:31;-3.10;99.90
15013;DHT22;7603;49.432;11.418;2023-04-06T05:46:57;-3.00;99.90
15013;DHT22;7603;49.432;11.418;2023-04-06T05:49:23;-2.90;99.90
15013;DHT22;7603;49.432;11.418;2023-04-06T05:51:48;-2.90;99.90
15013;DHT22;7603;49.432;11.418;2023-04-06T05:54:14;-2.70;99.90
15013;DHT22;7603;49.432;11.418;2023-04-06T05:56:39;-2.60;99.90
15013;DHT22;7603;49.432;11.418;2023-04-06T05:59:05;-2.50;99.90
15013;DHT22;7603;49.432;11.418;2023-04-06T06:01:32;-2.40;99.90
15013;DHT22;7603;49.432;11.418;2023-04-06T06:03:57;-2.20;99.90
15013;DHT22;7603;49.432;11.418;2023-04-06T06:06:23;-2.10;99.90
15013;DHT22;7603;49.432;11.418;2023-04-06T06:08:49;-1.90;99.90
15013;DHT22;7603;49.432;11.418;2023-04-06T06:11:14;-1.80;99.90
15013;DHT22;7603;49.432;11.418;2023-04-06T06:13:40;-1.60;99.90
15013;DHT22;7603;49.432;11.418;2023-04-06T06:16:06;-1.40;99.90
15013;DHT22;7603;49.432;11.418;2023-04-06T06:18:31;-1.20;99.90
15013;DHT22;7603;49.432;11.418;2023-04-06T06:20:57;-1.00;99.90
15013;DHT22;7603;49.432;11.418;2023-04-06T06:23:23;-0.80;99.90
15013;DHT22;7603;49.432;11.418;2023-04-06T06:25:48;-0.60;99.90
15013;DHT22;7603;49.432;11.418;2023-04-06T06:28:14;-0.30;99.90
15013;DHT22;7603;49.432;11.418;2023-04-06T06:30:40;-0.10;99.90
15013;DHT22;7603;49.432;11.418;2023-04-06T06:33:05;0.20;99.90
15013;DHT22;7603;49.432;11.418;2023-04-06T06:35:31;0.40;99.90
15013;DHT22;7603;49.432;11.418;2023-04-06T06:37:56;0.70;99.90
15013;DHT22;7603;49.432;11.418;2023-04-06T06:40:22;1.00;99.90
15013;DHT22;7603;49.432;11.418;2023-04-06T06:42:49;1.40;99.90
15013;DHT22;7603;49.432;11.418;2023-04-06T06:45:16;1.70;99.90
15013;DHT22;7603;49.432;11.418;2023-04-06T06:47:42;1.90;99.90
15013;DHT22;7603;49.432;11.418;2023-04-06T06:50:08;2.30;99.90
15013;DHT22;7603;49.432;11.418;2023-04-06T06:52:33;2.50;99.90
15013;DHT22;7603;49.432;11.418;2023-04-06T06:54:59;2.80;99.90
15013;DHT22;7603;49.432;11.418;2023-04-06T06:57:25;3.00;99.90
15013;DHT22;7603;49.432;11.418;2023-04-06T06:59:51;3.20;99.90
15013;DHT22;7603;49.432;11.418;2023-04-06T07:02:17;3.40;99.90
15013;DHT22;7603;49.432;11.418;2023-04-06T07:04:42;3.60;99.90
15013;DHT22;7603;49.432;11.418;2023-04-06T07:07:08;3.80;99.90
15013;DHT22;7603;49.432;11.418;2023-04-06T07:09:34;4.00;99.90
15013;DHT22;7603;49.432;11.418;2023-04-06T07:12:00;4.20;99.90
15013;DHT22;7603;49.432;11.418;2023-04-06T07:14:27;4.40;99.90
15013;DHT22;7603;49.432;11.418;2023-04-06T07:16:52;4.60;99.90
15013;DHT22;7603;49.432;11.418;2023-04-06T07:19:18;4.70;99.90
15013;DHT22;7603;49.432;11.418;2023-04-06T07:21:43;4.90;99.90
15013;DHT22;7603;49.432;11.418;2023-04-06T07:24:09;5.00;99.90
15013;DHT22;7603;49.432;11.418;2023-04-06T07:26:35;5.20;99.90
15013;DHT22;7603;49.432;11.418;2023-04-06T07:29:00;5.30;99.90
15013;DHT22;7603;49.432;11.418;2023-04-06T07:31:26;5.40;99.90
15013;DHT22;7603;49.432;11.418;2023-04-06T07:33:51;5.60;99.90
15013;DHT22;7603;49.432;11.418;2023-04-06T07:36:17;5.60;99.90
15013;DHT22;7603;49.432;11.418;2023-04-06T07:38:43;5.80;99.50
15013;DHT22;7603;49.432;11.418;2023-04-06T07:41:11;5.90;99.00
15013;DHT22;7603;49.432;11.418;2023-04-06T07:43:36;6.00;98.20
15013;DHT22;7603;49.432;11.418;2023-04-06T07:46:03;6.10;97.30
15013;DHT22;7603;49.432;11.418;2023-04-06T07:48:28;6.20;96.90
15013;DHT22;7603;49.432;11.418;2023-04-06T07:51:01;6.30;96.20
15013;DHT22;7603;49.432;11.418;2023-04-06T07:53:27;6.40;95.00
15013;DHT22;7603;49.432;11.418;2023-04-06T07:55:53;6.60;94.10
15013;DHT22;7603;49.432;11.418;2023-04-06T07:58:19;6.70;92.90
15013;DHT22;7603;49.432;11.418;2023-04-06T08:00:44;6.90;91.80
15013;DHT22;7603;49.432;11.418;2023-04-06T08:03:10;6.90;91.00
15013;DHT22;7603;49.432;11.418;2023-04-06T08:05:35;7.10;90.00
15013;DHT22;7603;49.432;11.418;2023-04-06T08:08:01;7.10;89.60
15013;DHT22;7603;49.432;11.418;2023-04-06T08:10:27;7.20;88.10
15013;DHT22;7603;49.432;11.418;2023-04-06T08:12:52;7.30;87.60
15013;DHT22;7603;49.432;11.418;2023-04-06T08:15:18;7.40;86.90
15013;DHT22;7603;49.432;11.418;2023-04-06T08:17:43;7.50;85.90
15013;DHT22;7603;49.432;11.418;2023-04-06T08:20:09;7.70;82.90
15013;DHT22;7603;49.432;11.418;2023-04-06T08:22:35;7.80;81.60
15013;DHT22;7603;49.432;11.418;2023-04-06T08:25:01;7.90;77.90
15013;DHT22;7603;49.432;11.418;2023-04-06T08:27:26;7.90;76.30
15013;DHT22;7603;49.432;11.418;2023-04-06T08:29:52;8.00;74.70
15013;DHT22;7603;49.432;11.418;2023-04-06T08:32:17;8.10;75.90
15013;DHT22;7603;49.432;11.418;2023-04-06T08:34:43;8.10;74.90
15013;DHT22;7603;49.432;11.418;2023-04-06T08:37:09;8.30;73.30
15013;DHT22;7603;49.432;11.418;2023-04-06T08:39:34;8.50;73.10
15013;DHT22;7603;49.432;11.418;2023-04-06T08:42:01;8.80;72.30
15013;DHT22;7603;49.432;11.418;2023-04-06T08:44:29;9.20;71.40
15013;DHT22;7603;49.432;11.418;2023-04-06T08:46:55;9.60;67.90
15013;DHT22;7603;49.432;11.418;2023-04-06T08:49:21;10.00;67.30
15013;DHT22;7603;49.432;11.418;2023-04-06T08:51:47;10.60;66.80
15013;DHT22;7603;49.432;11.418;2023-04-06T08:54:13;11.30;62.60
15013;DHT22;7603;49.432;11.418;2023-04-06T08:56:39;12.00;62.90
15013;DHT22;7603;49.432;11.418;2023-04-06T08:59:06;12.70;60.20
15013;DHT22;7603;49.432;11.418;2023-04-06T09:01:33;13.50;57.10
15013;DHT22;7603;49.432;11.418;2023-04-06T09:04:03;14.30;54.80
15013;DHT22;7603;49.432;11.418;2023-04-06T09:06:34;14.90;51.90
15013;DHT22;7603;49.432;11.418;2023-04-06T09:09:02;15.60;49.40
15013;DHT22;7603;49.432;11.418;2023-04-06T09:11:28;16.20;47.70
15013;DHT22;7603;49.432;11.418;2023-04-06T09:13:55;16.80;45.70
15013;DHT22;7603;49.432;11.418;2023-04-06T09:16:22;17.30;42.70
15013;DHT22;7603;49.432;11.418;2023-04-06T09:18:49;17.80;43.30
15013;DHT22;7603;49.432;11.418;2023-04-06T09:21:17;18.60;42.90
15013;DHT22;7603;49.432;11.418;2023-04-06T09:23:46;18.80;38.40
15013;DHT22;7603;49.432;11.418;2023-04-06T09:26:15;18.80;36.80
15013;DHT22;7603;49.432;11.418;2023-04-06T09:28:47;18.70;36.20
15013;DHT22;7603;49.432;11.418;2023-04-06T09:31:15;19.00;36.40
15013;DHT22;7603;49.432;11.418;2023-04-06T09:33:44;19.80;36.30
15013;DHT22;7603;49.432;11.418;2023-04-06T09:36:11;20.80;35.20
15013;DHT22;7603;49.432;11.418;2023-04-06T09:38:38;22.30;33.10
15013;DHT22;7603;49.432;11.418;2023-04-06T09:41:04;22.80;30.00
15013;DHT22;7603;49.432;11.418;2023-04-06T09:43:30;22.70;30.00
15013;DHT22;7603;49.432;11.418;2023-04-06T09:45:56;22.60;29.30
15013;DHT22;7603;49.432;11.418;2023-04-06T09:48:24;22.70;29.50
15013;DHT22;7603;49.432;11.418;2023-04-06T09:50:56;23.20;29.10
15013;DHT22;7603;49.432;11.418;2023-04-06T09:53:26;23.60;28.80
15013;DHT22;7603;49.432;11.418;2023-04-06T09:55:57;23.40;27.50
15013;DHT22;7603;49.432;11.418;2023-04-06T09:58:23;22.80;27.40
15013;DHT22;7603;49.432;11.418;2023-04-06T10:01:03;22.00;27.50
15013;DHT22;7603;49.432;11.418;2023-04-06T10:06:05;21.10;29.20
15013;DHT22;7603;49.432;11.418;2023-04-06T10:08:34;21.10;28.70
15013;DHT22;7603;49.432;11.418;2023-04-06T10:11:02;20.80;28.20
15013;DHT22;7603;49.432;11.418;2023-04-06T10:13:27;20.60;28.40
15013;DHT22;7603;49.432;11.418;2023-04-06T10:15:54;20.10;28.30
15013;DHT22;7603;49.432;11.418;2023-04-06T10:18:20;19.70;28.60
15013;DHT22;7603;49.432;11.418;2023-04-06T10:21:07;20.40;29.10
15013;DHT22;7603;49.432;11.418;2023-04-06T10:23:55;21.90;27.70
15013;DHT22;7603;49.432;11.418;2023-04-06T10:26:23;23.40;26.90
15013;DHT22;7603;49.432;11.418;2023-04-06T10:28:50;24.90;26.60
15013;DHT22;7603;49.432;11.418;2023-04-06T10:31:26;26.20;25.10
15013;DHT22;7603;49.432;11.418;2023-04-06T10:34:04;27.50;24.30
15013;DHT22;7603;49.432;11.418;2023-04-06T10:36:33;28.70;23.00
15013;DHT22;7603;49.432;11.418;2023-04-06T10:39:08;29.60;21.60
15013;DHT22;7603;49.432;11.418;2023-04-06T10:41:42;29.20;20.00
15013;DHT22;7603;49.432;11.418;2023-04-06T10:44:07;29.20;20.70
15013;DHT22;7603;49.432;11.418;2023-04-06T10:46:33;29.60;21.60
15013;DHT22;7603;49.432;11.418;2023-04-06T10:49:12;29.90;19.60
15013;DHT22;7603;49.432;11.418;2023-04-06T10:51:38;30.30;20.10
15013;DHT22;7603;49.432;11.418;2023-04-06T10:54:06;30.90;20.40
15013;DHT22;7603;49.432;11.418;2023-04-06T10:56:33;31.80;20.10
15013;DHT22;7603;49.432;11.418;2023-04-06T10:59:02;33.00;19.80
15013;DHT22;7603;49.432;11.418;2023-04-06T11:01:27;34.20;19.10
15013;DHT22;7603;49.432;11.418;2023-04-06T11:03:56;35.20;18.90
15013;DHT22;7603;49.432;11.418;2023-04-06T11:06:28;35.40;17.80
15013;DHT22;7603;49.432;11.418;2023-04-06T11:08:56;35.60;18.10
15013;DHT22;7603;49.432;11.418;2023-04-06T11:11:24;36.00;17.50
15013;DHT22;7603;49.432;11.418;2023-04-06T11:13:59;35.80;16.70
15013;DHT22;7603;49.432;11.418;2023-04-06T11:16:27;35.00;16.10
15013;DHT22;7603;49.432;11.418;2023-04-06T11:21:38;33.40;17.40
15013;DHT22;7603;49.432;11.418;2023-04-06T11:29:09;29.90;17.90
15013;DHT22;7603;49.432;11.418;2023-04-06T11:31:40;29.20;18.80
15013;DHT22;7603;49.432;11.418;2023-04-06T11:34:19;29.70;19.00
15013;DHT22;7603;49.432;11.418;2023-04-06T11:36:46;30.80;19.00
15013;DHT22;7603;49.432;11.418;2023-04-06T11:39:17;32.30;18.70
15013;DHT22;7603;49.432;11.418;2023-04-06T11:41:51;33.80;18.30
15013;DHT22;7603;49.432;11.418;2023-04-06T11:46:54;35.80;16.40
15013;DHT22;7603;49.432;11.418;2023-04-06T11:49:22;35.70;15.80
15013;DHT22;7603;49.432;11.418;2023-04-06T11:51:47;35.50;16.40
15013;DHT22;7603;49.432;11.418;2023-04-06T11:54:13;35.80;16.40
15013;DHT22;7603;49.432;11.418;2023-04-06T11:56:38;36.50;16.50
15013;DHT22;7603;49.432;11.418;2023-04-06T11:59:04;37.10;16.20
15013;DHT22;7603;49.432;11.418;2023-04-06T12:01:30;37.10;15.80
15013;DHT22;7603;49.432;11.418;2023-04-06T12:03:55;37.20;15.70
15013;DHT22;7603;49.432;11.418;2023-04-06T12:06:21;37.10;15.60
15013;DHT22;7603;49.432;11.418;2023-04-06T12:08:48;36.90;15.60
15013;DHT22;7603;49.432;11.418;2023-04-06T12:11:13;37.20;15.30
15013;DHT22;7603;49.432;11.418;2023-04-06T12:13:39;37.50;15.60
15013;DHT22;7603;49.432;11.418;2023-04-06T12:16:05;38.10;15.60
15013;DHT22;7603;49.432;11.418;2023-04-06T12:18:31;38.30;15.10
15013;DHT22;7603;49.432;11.418;2023-04-06T12:20:56;38.10;15.40
15013;DHT22;7603;49.432;11.418;2023-04-06T12:23:22;37.50;15.30
15013;DHT22;7603;49.432;11.418;2023-04-06T12:25:48;37.10;15.70
15013;DHT22;7603;49.432;11.418;2023-04-06T12:28:13;37.00;15.40
15013;DHT22;7603;49.432;11.418;2023-04-06T12:30:39;37.10;15.60
15013;DHT22;7603;49.432;11.418;2023-04-06T12:33:06;37.20;15.80
15013;DHT22;7603;49.432;11.418;2023-04-06T12:35:36;36.90;15.50
15013;DHT22;7603;49.432;11.418;2023-04-06T12:38:02;37.10;15.30
15013;DHT22;7603;49.432;11.418;2023-04-06T12:40:27;37.50;15.40
15013;DHT22;7603;49.432;11.418;2023-04-06T12:42:53;37.90;15.60
15013;DHT22;7603;49.432;11.418;2023-04-06T12:45:18;38.30;15.80
15013;DHT22;7603;49.432;11.418;2023-04-06T12:47:44;38.30;15.00
15013;DHT22;7603;49.432;11.418;2023-04-06T12:50:10;38.00;15.10
15013;DHT22;7603;49.432;11.418;2023-04-06T12:52:36;37.90;15.40
15013;DHT22;7603;49.432;11.418;2023-04-06T12:55:02;38.00;15.20
15013;DHT22;7603;49.432;11.418;2023-04-06T12:57:28;38.20;15.10
15013;DHT22;7603;49.432;11.418;2023-04-06T12:59:54;38.60;15.20
15013;DHT22;7603;49.432;11.418;2023-04-06T13:02:19;39.10;15.20
15013;DHT22;7603;49.432;11.418;2023-04-06T13:04:46;39.40;14.80
15013;DHT22;7603;49.432;11.418;2023-04-06T13:07:12;39.70;14.70
15013;DHT22;7603;49.432;11.418;2023-04-06T13:09:37;40.20;14.50
15013;DHT22;7603;49.432;11.418;2023-04-06T13:12:03;40.40;14.40
15013;DHT22;7603;49.432;11.418;2023-04-06T13:14:29;40.30;14.50
15013;DHT22;7603;49.432;11.418;2023-04-06T13:16:54;40.00;14.70
15013;DHT22;7603;49.432;11.418;2023-04-06T13:19:20;39.70;14.70
15013;DHT22;7603;49.432;11.418;2023-04-06T13:21:46;39.50;14.50
15013;DHT22;7603;49.432;11.418;2023-04-06T13:24:12;39.80;14.50
15013;DHT22;7603;49.432;11.418;2023-04-06T13:26:38;40.00;14.50
15013;DHT22;7603;49.432;11.418;2023-04-06T13:29:03;40.30;14.60
15013;DHT22;7603;49.432;11.418;2023-04-06T13:31:29;40.70;14.40
15013;DHT22;7603;49.432;11.418;2023-04-06T13:33:54;40.90;14.10
15013;DHT22;7603;49.432;11.418;2023-04-06T13:36:20;40.90;14.10
15013;DHT22;7603;49.432;11.418;2023-04-06T13:38:46;40.70;14.10
15013;DHT22;7603;49.432;11.418;2023-04-06T13:41:21;38.80;14.20
15013;DHT22;7603;49.432;11.418;2023-04-06T13:43:48;36.70;14.70
15013;DHT22;7603;49.432;11.418;2023-04-06T13:46:13;36.10;15.50
15013;DHT22;7603;49.432;11.418;2023-04-06T13:48:39;36.20;15.40
15013;DHT22;7603;49.432;11.418;2023-04-06T13:51:09;36.50;15.20
15013;DHT22;7603;49.432;11.418;2023-04-06T13:53:35;36.60;14.90
15013;DHT22;7603;49.432;11.418;2023-04-06T13:56:00;36.80;14.80
15013;DHT22;7603;49.432;11.418;2023-04-06T13:58:26;36.30;15.10
15013;DHT22;7603;49.432;11.418;2023-04-06T14:00:52;35.80;15.40
15013;DHT22;7603;49.432;11.418;2023-04-06T14:03:18;35.50;15.60
15013;DHT22;7603;49.432;11.418;2023-04-06T14:05:45;35.70;15.60
15013;DHT22;7603;49.432;11.418;2023-04-06T14:08:10;36.30;15.30
15013;DHT22;7603;49.432;11.418;2023-04-06T14:10:37;36.60;15.10
15013;DHT22;7603;49.432;11.418;2023-04-06T14:13:03;37.30;14.80
15013;DHT22;7603;49.432;11.418;2023-04-06T14:15:29;37.60;15.10
15013;DHT22;7603;49.432;11.418;2023-04-06T14:17:55;38.30;14.80
15013;DHT22;7603;49.432;11.418;2023-04-06T14:20:21;38.80;14.70
15013;DHT22;7603;49.432;11.418;2023-04-06T14:22:46;39.30;14.80
15013;DHT22;7603;49.432;11.418;2023-04-06T14:25:14;39.80;14.50
15013;DHT22;7603;49.432;11.418;2023-04-06T14:27:41;40.20;14.30
15013;DHT22;7603;49.432;11.418;2023-04-06T14:30:08;40.30;14.50
15013;DHT22;7603;49.432;11.418;2023-04-06T14:32:34;40.50;14.40
15013;DHT22;7603;49.432;11.418;2023-04-06T14:35:00;41.00;14.30
15013;DHT22;7603;49.432;11.418;2023-04-06T14:37:25;41.30;13.90
15013;DHT22;7603;49.432;11.418;2023-04-06T14:39:51;40.90;13.50
15013;DHT22;7603;49.432;11.418;2023-04-06T14:42:17;39.90;13.50
15013;DHT22;7603;49.432;11.418;2023-04-06T14:44:49;38.60;13.80
15013;DHT22;7603;49.432;11.418;2023-04-06T14:47:14;37.50;14.20
15013;DHT22;7603;49.432;11.418;2023-04-06T14:49:50;36.20;14.30
15013;DHT22;7603;49.432;11.418;2023-04-06T14:52:16;34.30;14.80
15013;DHT22;7603;49.432;11.418;2023-04-06T14:54:41;32.70;15.70
15013;DHT22;7603;49.432;11.418;2023-04-06T14:57:07;32.00;16.20
15013;DHT22;7603;49.432;11.418;2023-04-06T14:59:33;32.50;16.50
15013;DHT22;7603;49.432;11.418;2023-04-06T15:01:58;33.60;16.30
15013;DHT22;7603;49.432;11.418;2023-04-06T15:04:28;34.10;15.80
15013;DHT22;7603;49.432;11.418;2023-04-06T15:06:54;35.00;15.60
15013;DHT22;7603;49.432;11.418;2023-04-06T15:09:19;36.00;15.30
15013;DHT22;7603;49.432;11.418;2023-04-06T15:11:45;36.90;15.10
15013;DHT22;7603;49.432;11.418;2023-04-06T15:14:10;36.70;14.90
15013;DHT22;7603;49.432;11.418;2023-04-06T15:16:36;36.70;15.00
15013;DHT22;7603;49.432;11.418;2023-04-06T15:19:01;36.30;14.80
15013;DHT22;7603;49.432;11.418;2023-04-06T15:21:27;34.90;14.70
15013;DHT22;7603;49.432;11.418;2023-04-06T15:23:53;33.20;15.20
15013;DHT22;7603;49.432;11.418;2023-04-06T15:26:20;31.50;15.90
15013;DHT22;7603;49.432;11.418;2023-04-06T15:28:45;29.70;16.70
15013;DHT22;7603;49.432;11.418;2023-04-06T15:31:15;28.00;17.20
15013;DHT22;7603;49.432;11.418;2023-04-06T15:33:41;26.70;18.10
15013;DHT22;7603;49.432;11.418;2023-04-06T15:36:29;25.60;18.90
15013;DHT22;7603;49.432;11.418;2023-04-06T15:38:58;24.80;19.60
15013;DHT22;7603;49.432;11.418;2023-04-06T15:41:25;23.90;20.30